»·PEaware :: SWA113 KSAN-KLAS

SWA113 :: KSAN-KLAS

FLIGHT INFORMATION

Flight Status: Arrived
Operator:
Southwest Airlines
More flights by this operator :: More flights under this callsign
Pilot: Timothy L. (25392)
Aircraft: BOEING 737-300
(B733)
More flights by this aircraft type
Origin: KSAN San Diego Intl-Lindbergh
United States
Destination: KLAS McCarran Intl
United States
More flights between these airports :: More routes between these airports
Route: +YELAH MISEN KEPEC6
File this flight plan on PilotEdge
Remarks:
Altitude:
(Current/Filed)
29,000ft
Speed:
(Current/Filed)
450kts
Departed: 24-Jul-20 03:01 PM
Arrived: 24-Jul-20 03:45 PM
Distance/Time
Traveled:
225nm/0:44
Distance/Time
To Go:
Arrived

Flight Plot

Page will automatically refresh every two minutes.

Flight plan parsing failed; only flown route is shown


Map Options




Map Legend


Flown Route
Filed Route
Departure Airport
Arrival Airport
Navaid (VOR, NDB)
Fix

Horizontal Profiles

Position Reports

Time Latitude Longitude Heading Altitude Ground
Speed
24-Jul-20 14:34 32.732512 -117.195441 312 23ft 0kts
24-Jul-20 14:35 32.732512 -117.195441 312 23ft 0kts
24-Jul-20 14:36 32.732512 -117.195441 312 23ft 0kts
24-Jul-20 14:37 32.732512 -117.195441 312 23ft 0kts
24-Jul-20 14:38 32.732512 -117.195441 312 23ft 0kts
24-Jul-20 14:39 32.732512 -117.195441 312 23ft 0kts
24-Jul-20 14:40 32.732512 -117.195441 312 23ft 0kts
24-Jul-20 14:41 32.732512 -117.195441 312 23ft 0kts
24-Jul-20 14:42 32.732512 -117.195441 312 23ft 0kts
24-Jul-20 14:43 32.732512 -117.195441 312 23ft 0kts
24-Jul-20 14:44 32.732512 -117.195440 312 23ft 0kts
24-Jul-20 14:45 32.732512 -117.195440 312 23ft 0kts
24-Jul-20 14:46 32.732512 -117.195440 312 23ft 0kts
24-Jul-20 14:47 32.732512 -117.195440 312 23ft 0kts
24-Jul-20 14:48 32.732512 -117.195440 312 23ft 0kts
24-Jul-20 14:50 32.732512 -117.195440 312 23ft 0kts
24-Jul-20 14:51 32.732512 -117.195440 312 23ft 0kts
24-Jul-20 14:52 32.732512 -117.195440 312 23ft 0kts
24-Jul-20 14:53 32.732512 -117.195440 312 23ft 0kts
24-Jul-20 14:54 32.732512 -117.195440 312 23ft 0kts
24-Jul-20 14:55 32.732187 -117.195024 312 23ft 2kts
24-Jul-20 14:56 32.731925 -117.194937 19 23ft 0kts
24-Jul-20 14:57 32.731944 -117.194929 19 23ft 1kts
24-Jul-20 14:58 32.733313 -117.192977 106 23ft 16kts
24-Jul-20 14:59 32.731752 -117.186515 106 23ft 24kts
24-Jul-20 15:00 32.729618 -117.177712 105 23ft 28kts
24-Jul-20 15:01 32.731955 -117.183056 286 23ft 114kts
24-Jul-20 15:02 32.752076 -117.229903 301 1967ft 216kts
24-Jul-20 15:03 32.788983 -117.299093 302 5313ft 273kts
24-Jul-20 15:04 32.835117 -117.373528 307 9510ft 291kts
24-Jul-20 15:05 32.889752 -117.458206 306 12221ft 351kts
24-Jul-20 15:06 32.966087 -117.526165 358 15721ft 373kts
24-Jul-20 15:07 33.064460 -117.483642 16 18725ft 392kts
24-Jul-20 15:08 33.169894 -117.438175 19 21434ft 411kts
24-Jul-20 15:09 33.278241 -117.388255 18 23950ft 427kts
24-Jul-20 15:10 33.391240 -117.335952 18 26061ft 444kts
24-Jul-20 15:11 33.508572 -117.281468 18 28101ft 460kts
24-Jul-20 15:12 33.628204 -117.225712 18 29027ft 450kts
24-Jul-20 15:13 33.744100 -117.171568 18 28958ft 456kts
24-Jul-20 15:14 33.864553 -117.115072 18 28987ft 468kts
24-Jul-20 15:15 33.985992 -117.058006 18 28964ft 468kts
24-Jul-20 15:16 34.106282 -117.001235 18 28941ft 471kts
24-Jul-20 15:17 34.228634 -116.943491 18 29034ft 470kts
24-Jul-20 15:18 34.350424 -116.885736 18 29075ft 470kts
24-Jul-20 15:19 34.471762 -116.828022 18 28628ft 469kts
24-Jul-20 15:20 34.593157 -116.770069 19 27728ft 469kts
24-Jul-20 15:21 34.714703 -116.711851 19 26939ft 470kts
24-Jul-20 15:21 34.816077 -116.663195 19 26251ft 471kts
24-Jul-20 15:23 34.941830 -116.560258 37 25223ft 471kts
24-Jul-20 15:23 35.026464 -116.477844 37 24517ft 464kts
24-Jul-20 15:25 35.134238 -116.365227 45 23908ft 475kts
24-Jul-20 15:26 35.223283 -116.252601 45 23968ft 480kts
24-Jul-20 15:27 35.315801 -116.136391 45 23300ft 468kts
24-Jul-20 15:28 35.403139 -116.026322 45 20392ft 430kts
24-Jul-20 15:28 35.470029 -115.941783 45 18451ft 405kts
24-Jul-20 15:30 35.559479 -115.828393 46 15794ft 389kts
24-Jul-20 15:30 35.623049 -115.752726 34 13991ft 377kts
24-Jul-20 15:32 35.719671 -115.666445 37 11495ft 361kts
24-Jul-20 15:32 35.784443 -115.606254 37 10991ft 345kts
24-Jul-20 15:33 35.861314 -115.534566 37 11003ft 354kts
24-Jul-20 15:35 35.953541 -115.448316 37 10990ft 349kts
24-Jul-20 15:35 36.010027 -115.395438 37 10983ft 292kts
24-Jul-20 15:37 36.025097 -115.291446 97 10058ft 274kts
24-Jul-20 15:37 36.019399 -115.214383 97 9190ft 255kts
24-Jul-20 15:39 36.012585 -115.115908 96 7462ft 244kts
24-Jul-20 15:39 36.008161 -115.046779 96 6153ft 240kts
24-Jul-20 15:40 36.023797 -114.979529 6 5329ft 212kts
24-Jul-20 15:41 36.071384 -115.005249 275 4174ft 202kts
24-Jul-20 15:42 36.073556 -115.072179 269 3096ft 178kts
24-Jul-20 15:43 36.073712 -115.125892 270 2226ft 142kts
24-Jul-20 15:44 36.075113 -115.146426 330 2185ft 4kts
24-Jul-20 15:45 36.077139 -115.146533 0 2185ft 15kts
24-Jul-20 15:46 36.078424 -115.144744 324 2185ft 12kts
24-Jul-20 15:47 36.079783 -115.145803 334 2185ft 0kts
24-Jul-20 15:48 36.079783 -115.145803 334 2185ft 0kts

Navigation Log

Ident Type
Flight plan parsing failed, navigation log unavailable